sensor_id;sensor_type;location;lat;lon;timestamp;P1;durP1;ratioP1;P2;durP2;ratioP2
12135;SDS011;6131;56.420;15.548;2024-03-25T00:02:16;30.10;;;18.13;;
12135;SDS011;6131;56.420;15.548;2024-03-25T00:04:42;31.10;;;17.67;;
12135;SDS011;6131;56.420;15.548;2024-03-25T00:07:08;33.00;;;18.77;;
12135;SDS011;6131;56.420;15.548;2024-03-25T00:09:34;36.33;;;19.87;;
12135;SDS011;6131;56.420;15.548;2024-03-25T00:12:00;36.20;;;19.50;;
12135;SDS011;6131;56.420;15.548;2024-03-25T00:14:29;36.67;;;19.20;;
12135;SDS011;6131;56.420;15.548;2024-03-25T00:16:55;38.77;;;20.43;;
12135;SDS011;6131;56.420;15.548;2024-03-25T00:19:21;36.63;;;19.80;;
12135;SDS011;6131;56.420;15.548;2024-03-25T00:21:47;38.37;;;20.33;;
12135;SDS011;6131;56.420;15.548;2024-03-25T00:24:14;52.43;;;20.50;;
12135;SDS011;6131;56.420;15.548;2024-03-25T00:26:39;52.37;;;20.10;;
12135;SDS011;6131;56.420;15.548;2024-03-25T00:29:05;62.90;;;22.23;;
12135;SDS011;6131;56.420;15.548;2024-03-25T00:31:31;36.57;;;19.60;;
12135;SDS011;6131;56.420;15.548;2024-03-25T00:33:57;38.17;;;19.83;;
12135;SDS011;6131;56.420;15.548;2024-03-25T00:36:23;36.30;;;19.77;;
12135;SDS011;6131;56.420;15.548;2024-03-25T00:38:49;44.73;;;20.57;;
12135;SDS011;6131;56.420;15.548;2024-03-25T00:41:15;54.37;;;19.50;;
12135;SDS011;6131;56.420;15.548;2024-03-25T00:43:42;57.17;;;21.37;;
12135;SDS011;6131;56.420;15.548;2024-03-25T00:46:08;53.67;;;21.63;;
12135;SDS011;6131;56.420;15.548;2024-03-25T00:48:34;47.80;;;22.17;;
12135;SDS011;6131;56.420;15.548;2024-03-25T00:51:02;51.23;;;23.03;;
12135;SDS011;6131;56.420;15.548;2024-03-25T00:53:28;56.60;;;21.83;;
12135;SDS011;6131;56.420;15.548;2024-03-25T00:55:54;56.87;;;22.53;;
12135;SDS011;6131;56.420;15.548;2024-03-25T00:58:20;53.13;;;20.73;;
12135;SDS011;6131;56.420;15.548;2024-03-25T01:00:46;50.17;;;21.37;;
12135;SDS011;6131;56.420;15.548;2024-03-25T01:03:12;43.43;;;21.80;;
12135;SDS011;6131;56.420;15.548;2024-03-25T01:05:38;45.47;;;21.77;;
12135;SDS011;6131;56.420;15.548;2024-03-25T01:08:04;50.80;;;21.40;;
12135;SDS011;6131;56.420;15.548;2024-03-25T01:10:30;50.57;;;20.73;;
12135;SDS011;6131;56.420;15.548;2024-03-25T01:12:56;46.20;;;20.50;;
12135;SDS011;6131;56.420;15.548;2024-03-25T01:15:22;46.73;;;20.60;;
12135;SDS011;6131;56.420;15.548;2024-03-25T01:17:48;65.07;;;23.40;;
12135;SDS011;6131;56.420;15.548;2024-03-25T01:20:14;37.40;;;20.50;;
12135;SDS011;6131;56.420;15.548;2024-03-25T01:22:40;45.67;;;20.67;;
12135;SDS011;6131;56.420;15.548;2024-03-25T01:25:06;40.80;;;19.33;;
12135;SDS011;6131;56.420;15.548;2024-03-25T01:27:32;44.73;;;20.17;;
12135;SDS011;6131;56.420;15.548;2024-03-25T01:29:58;50.40;;;20.47;;
12135;SDS011;6131;56.420;15.548;2024-03-25T01:32:25;47.67;;;20.87;;
12135;SDS011;6131;56.420;15.548;2024-03-25T01:34:51;40.73;;;20.00;;
12135;SDS011;6131;56.420;15.548;2024-03-25T01:37:20;46.57;;;20.43;;
12135;SDS011;6131;56.420;15.548;2024-03-25T01:39:46;71.10;;;21.30;;
12135;SDS011;6131;56.420;15.548;2024-03-25T01:42:13;44.30;;;20.47;;
12135;SDS011;6131;56.420;15.548;2024-03-25T01:44:39;45.03;;;20.60;;
12135;SDS011;6131;56.420;15.548;2024-03-25T01:47:06;89.03;;;22.17;;
12135;SDS011;6131;56.420;15.548;2024-03-25T01:49:32;62.00;;;21.73;;
12135;SDS011;6131;56.420;15.548;2024-03-25T01:51:58;65.60;;;21.73;;
12135;SDS011;6131;56.420;15.548;2024-03-25T01:54:24;47.30;;;19.50;;
12135;SDS011;6131;56.420;15.548;2024-03-25T01:56:50;61.17;;;21.73;;
12135;SDS011;6131;56.420;15.548;2024-03-25T01:59:17;76.97;;;21.50;;
12135;SDS011;6131;56.420;15.548;2024-03-25T02:01:44;43.27;;;20.80;;
12135;SDS011;6131;56.420;15.548;2024-03-25T02:04:11;29.60;;;16.70;;
12135;SDS011;6131;56.420;15.548;2024-03-25T02:06:38;35.57;;;18.27;;
12135;SDS011;6131;56.420;15.548;2024-03-25T02:09:05;39.23;;;19.27;;
12135;SDS011;6131;56.420;15.548;2024-03-25T02:11:32;33.93;;;17.90;;
12135;SDS011;6131;56.420;15.548;2024-03-25T02:13:58;33.97;;;18.07;;
12135;SDS011;6131;56.420;15.548;2024-03-25T02:16:24;37.93;;;18.73;;
12135;SDS011;6131;56.420;15.548;2024-03-25T02:18:50;38.73;;;17.83;;
12135;SDS011;6131;56.420;15.548;2024-03-25T02:21:16;33.20;;;17.40;;
12135;SDS011;6131;56.420;15.548;2024-03-25T02:23:42;31.67;;;17.43;;
12135;SDS011;6131;56.420;15.548;2024-03-25T02:26:10;35.30;;;17.37;;
12135;SDS011;6131;56.420;15.548;2024-03-25T02:28:36;32.47;;;16.57;;
12135;SDS011;6131;56.420;15.548;2024-03-25T02:31:02;30.10;;;15.73;;
12135;SDS011;6131;56.420;15.548;2024-03-25T02:33:28;29.83;;;15.00;;
12135;SDS011;6131;56.420;15.548;2024-03-25T02:35:54;31.53;;;16.20;;
12135;SDS011;6131;56.420;15.548;2024-03-25T02:38:20;31.70;;;15.70;;
12135;SDS011;6131;56.420;15.548;2024-03-25T02:40:46;31.40;;;15.97;;
12135;SDS011;6131;56.420;15.548;2024-03-25T02:43:12;28.90;;;15.73;;
12135;SDS011;6131;56.420;15.548;2024-03-25T02:45:39;31.03;;;14.63;;
12135;SDS011;6131;56.420;15.548;2024-03-25T02:48:05;29.93;;;15.17;;
12135;SDS011;6131;56.420;15.548;2024-03-25T02:50:31;30.27;;;15.50;;
12135;SDS011;6131;56.420;15.548;2024-03-25T02:52:57;32.10;;;15.27;;
12135;SDS011;6131;56.420;15.548;2024-03-25T02:55:22;31.13;;;14.10;;
12135;SDS011;6131;56.420;15.548;2024-03-25T02:57:48;28.30;;;15.30;;
12135;SDS011;6131;56.420;15.548;2024-03-25T03:00:14;27.57;;;14.40;;
12135;SDS011;6131;56.420;15.548;2024-03-25T03:02:40;28.70;;;14.97;;
12135;SDS011;6131;56.420;15.548;2024-03-25T03:05:06;30.13;;;14.90;;
12135;SDS011;6131;56.420;15.548;2024-03-25T03:07:33;25.67;;;14.03;;
12135;SDS011;6131;56.420;15.548;2024-03-25T03:09:59;25.13;;;13.83;;
12135;SDS011;6131;56.420;15.548;2024-03-25T03:12:25;24.63;;;13.27;;
12135;SDS011;6131;56.420;15.548;2024-03-25T03:14:51;26.00;;;13.10;;
12135;SDS011;6131;56.420;15.548;2024-03-25T03:17:17;24.83;;;13.33;;
12135;SDS011;6131;56.420;15.548;2024-03-25T03:19:44;24.60;;;13.07;;
12135;SDS011;6131;56.420;15.548;2024-03-25T03:22:11;23.43;;;13.07;;
12135;SDS011;6131;56.420;15.548;2024-03-25T03:24:36;23.60;;;13.50;;
12135;SDS011;6131;56.420;15.548;2024-03-25T03:27:03;22.93;;;12.80;;
12135;SDS011;6131;56.420;15.548;2024-03-25T03:29:29;26.73;;;13.73;;
12135;SDS011;6131;56.420;15.548;2024-03-25T03:31:55;27.97;;;14.17;;
12135;SDS011;6131;56.420;15.548;2024-03-25T03:34:20;27.30;;;12.90;;
12135;SDS011;6131;56.420;15.548;2024-03-25T03:36:46;26.47;;;13.80;;
12135;SDS011;6131;56.420;15.548;2024-03-25T03:39:12;28.50;;;14.57;;
12135;SDS011;6131;56.420;15.548;2024-03-25T03:41:38;24.90;;;13.20;;
12135;SDS011;6131;56.420;15.548;2024-03-25T03:44:04;24.63;;;13.53;;
12135;SDS011;6131;56.420;15.548;2024-03-25T03:46:31;25.43;;;13.07;;
12135;SDS011;6131;56.420;15.548;2024-03-25T03:48:57;25.90;;;13.73;;
12135;SDS011;6131;56.420;15.548;2024-03-25T03:51:23;22.83;;;12.77;;
12135;SDS011;6131;56.420;15.548;2024-03-25T03:53:49;26.73;;;13.43;;
12135;SDS011;6131;56.420;15.548;2024-03-25T03:56:15;24.27;;;13.60;;
12135;SDS011;6131;56.420;15.548;2024-03-25T03:58:41;28.40;;;14.07;;
12135;SDS011;6131;56.420;15.548;2024-03-25T04:01:17;26.43;;;13.13;;
12135;SDS011;6131;56.420;15.548;2024-03-25T04:03:43;29.93;;;13.10;;
12135;SDS011;6131;56.420;15.548;2024-03-25T04:06:10;26.70;;;13.23;;
12135;SDS011;6131;56.420;15.548;2024-03-25T04:08:37;27.07;;;13.63;;
12135;SDS011;6131;56.420;15.548;2024-03-25T04:11:03;25.07;;;12.33;;
12135;SDS011;6131;56.420;15.548;2024-03-25T04:13:31;25.93;;;13.43;;
12135;SDS011;6131;56.420;15.548;2024-03-25T04:16:00;27.17;;;13.47;;
12135;SDS011;6131;56.420;15.548;2024-03-25T04:18:27;28.03;;;13.23;;
12135;SDS011;6131;56.420;15.548;2024-03-25T04:20:53;31.03;;;14.10;;
12135;SDS011;6131;56.420;15.548;2024-03-25T04:23:19;27.17;;;13.60;;
12135;SDS011;6131;56.420;15.548;2024-03-25T04:25:45;24.30;;;12.47;;
12135;SDS011;6131;56.420;15.548;2024-03-25T04:28:11;25.20;;;13.20;;
12135;SDS011;6131;56.420;15.548;2024-03-25T04:30:37;27.40;;;13.00;;
12135;SDS011;6131;56.420;15.548;2024-03-25T04:33:03;29.17;;;14.10;;
12135;SDS011;6131;56.420;15.548;2024-03-25T04:35:29;29.37;;;14.43;;
12135;SDS011;6131;56.420;15.548;2024-03-25T04:37:55;35.83;;;14.50;;
12135;SDS011;6131;56.420;15.548;2024-03-25T04:40:22;25.33;;;12.10;;
12135;SDS011;6131;56.420;15.548;2024-03-25T04:42:48;25.77;;;12.97;;
12135;SDS011;6131;56.420;15.548;2024-03-25T04:45:14;27.00;;;12.80;;
12135;SDS011;6131;56.420;15.548;2024-03-25T04:47:40;30.97;;;12.90;;
12135;SDS011;6131;56.420;15.548;2024-03-25T04:50:06;23.47;;;12.27;;
12135;SDS011;6131;56.420;15.548;2024-03-25T04:52:33;19.33;;;10.87;;
12135;SDS011;6131;56.420;15.548;2024-03-25T04:54:59;23.40;;;11.87;;
12135;SDS011;6131;56.420;15.548;2024-03-25T04:57:25;23.80;;;11.87;;
12135;SDS011;6131;56.420;15.548;2024-03-25T04:59:51;25.63;;;12.47;;
12135;SDS011;6131;56.420;15.548;2024-03-25T05:02:17;24.73;;;12.10;;
12135;SDS011;6131;56.420;15.548;2024-03-25T05:04:43;20.70;;;10.57;;
12135;SDS011;6131;56.420;15.548;2024-03-25T05:07:09;25.70;;;11.57;;
12135;SDS011;6131;56.420;15.548;2024-03-25T05:09:35;23.20;;;11.83;;
12135;SDS011;6131;56.420;15.548;2024-03-25T05:12:01;25.33;;;11.90;;
12135;SDS011;6131;56.420;15.548;2024-03-25T05:14:27;25.60;;;11.53;;
12135;SDS011;6131;56.420;15.548;2024-03-25T05:16:53;22.50;;;11.47;;
12135;SDS011;6131;56.420;15.548;2024-03-25T05:19:19;21.87;;;11.13;;
12135;SDS011;6131;56.420;15.548;2024-03-25T05:21:45;29.00;;;12.37;;
12135;SDS011;6131;56.420;15.548;2024-03-25T05:24:11;21.97;;;11.83;;
12135;SDS011;6131;56.420;15.548;2024-03-25T05:26:37;23.50;;;11.23;;
12135;SDS011;6131;56.420;15.548;2024-03-25T05:29:03;20.90;;;11.90;;
12135;SDS011;6131;56.420;15.548;2024-03-25T05:31:29;24.67;;;12.23;;
12135;SDS011;6131;56.420;15.548;2024-03-25T05:33:55;21.97;;;11.67;;
12135;SDS011;6131;56.420;15.548;2024-03-25T05:36:22;25.33;;;12.33;;
12135;SDS011;6131;56.420;15.548;2024-03-25T05:38:48;26.20;;;11.93;;
12135;SDS011;6131;56.420;15.548;2024-03-25T05:41:14;24.00;;;12.27;;
12135;SDS011;6131;56.420;15.548;2024-03-25T05:43:40;22.03;;;11.67;;
12135;SDS011;6131;56.420;15.548;2024-03-25T05:46:06;24.03;;;12.60;;
12135;SDS011;6131;56.420;15.548;2024-03-25T05:48:32;25.00;;;12.50;;
12135;SDS011;6131;56.420;15.548;2024-03-25T05:51:01;26.20;;;13.03;;
12135;SDS011;6131;56.420;15.548;2024-03-25T05:53:28;24.87;;;13.33;;
12135;SDS011;6131;56.420;15.548;2024-03-25T05:55:54;24.43;;;12.33;;
12135;SDS011;6131;56.420;15.548;2024-03-25T05:58:22;24.00;;;13.03;;
12135;SDS011;6131;56.420;15.548;2024-03-25T06:00:48;23.07;;;12.77;;
12135;SDS011;6131;56.420;15.548;2024-03-25T06:03:14;27.57;;;13.33;;
12135;SDS011;6131;56.420;15.548;2024-03-25T06:05:40;24.80;;;12.93;;
12135;SDS011;6131;56.420;15.548;2024-03-25T06:08:07;26.73;;;12.93;;
12135;SDS011;6131;56.420;15.548;2024-03-25T06:10:41;22.90;;;12.70;;
12135;SDS011;6131;56.420;15.548;2024-03-25T06:13:07;25.37;;;13.23;;
12135;SDS011;6131;56.420;15.548;2024-03-25T06:15:33;23.07;;;12.90;;
12135;SDS011;6131;56.420;15.548;2024-03-25T06:17:58;21.73;;;12.63;;
12135;SDS011;6131;56.420;15.548;2024-03-25T06:20:24;21.70;;;12.17;;
12135;SDS011;6131;56.420;15.548;2024-03-25T06:22:51;23.27;;;12.37;;
12135;SDS011;6131;56.420;15.548;2024-03-25T06:25:17;21.43;;;12.23;;
12135;SDS011;6131;56.420;15.548;2024-03-25T06:27:43;21.53;;;13.13;;
12135;SDS011;6131;56.420;15.548;2024-03-25T06:30:10;22.63;;;13.37;;
12135;SDS011;6131;56.420;15.548;2024-03-25T06:32:54;23.07;;;13.37;;
12135;SDS011;6131;56.420;15.548;2024-03-25T06:35:39;20.27;;;12.83;;
12135;SDS011;6131;56.420;15.548;2024-03-25T06:38:05;22.83;;;12.20;;
12135;SDS011;6131;56.420;15.548;2024-03-25T06:40:31;20.77;;;11.87;;
12135;SDS011;6131;56.420;15.548;2024-03-25T06:42:57;22.27;;;12.27;;
12135;SDS011;6131;56.420;15.548;2024-03-25T06:45:23;21.73;;;12.77;;
12135;SDS011;6131;56.420;15.548;2024-03-25T06:47:49;24.20;;;12.53;;
12135;SDS011;6131;56.420;15.548;2024-03-25T06:50:15;22.70;;;12.37;;
12135;SDS011;6131;56.420;15.548;2024-03-25T06:52:41;18.40;;;12.03;;
12135;SDS011;6131;56.420;15.548;2024-03-25T06:55:07;17.47;;;11.47;;
12135;SDS011;6131;56.420;15.548;2024-03-25T06:57:33;22.30;;;11.90;;
12135;SDS011;6131;56.420;15.548;2024-03-25T06:59:59;20.97;;;12.87;;
12135;SDS011;6131;56.420;15.548;2024-03-25T07:02:25;18.90;;;11.40;;
12135;SDS011;6131;56.420;15.548;2024-03-25T07:04:51;20.27;;;12.43;;
12135;SDS011;6131;56.420;15.548;2024-03-25T07:07:17;17.73;;;11.83;;
12135;SDS011;6131;56.420;15.548;2024-03-25T07:09:43;19.57;;;11.53;;
12135;SDS011;6131;56.420;15.548;2024-03-25T07:12:09;17.47;;;11.10;;
12135;SDS011;6131;56.420;15.548;2024-03-25T07:14:35;18.97;;;11.77;;
12135;SDS011;6131;56.420;15.548;2024-03-25T07:17:01;17.97;;;11.70;;
12135;SDS011;6131;56.420;15.548;2024-03-25T07:19:28;18.60;;;10.90;;
12135;SDS011;6131;56.420;15.548;2024-03-25T07:21:54;18.03;;;11.37;;
12135;SDS011;6131;56.420;15.548;2024-03-25T07:24:20;17.03;;;11.27;;
12135;SDS011;6131;56.420;15.548;2024-03-25T07:26:46;17.80;;;11.57;;
12135;SDS011;6131;56.420;15.548;2024-03-25T07:29:12;17.33;;;11.40;;
12135;SDS011;6131;56.420;15.548;2024-03-25T07:31:38;16.37;;;11.13;;
12135;SDS011;6131;56.420;15.548;2024-03-25T07:34:04;17.13;;;10.37;;
12135;SDS011;6131;56.420;15.548;2024-03-25T07:36:30;14.87;;;9.60;;
12135;SDS011;6131;56.420;15.548;2024-03-25T07:39:00;14.60;;;9.93;;
12135;SDS011;6131;56.420;15.548;2024-03-25T07:41:26;13.87;;;9.17;;
12135;SDS011;6131;56.420;15.548;2024-03-25T07:43:52;14.00;;;9.23;;
12135;SDS011;6131;56.420;15.548;2024-03-25T07:46:18;11.77;;;8.07;;
12135;SDS011;6131;56.420;15.548;2024-03-25T07:48:44;12.27;;;8.37;;
12135;SDS011;6131;56.420;15.548;2024-03-25T07:51:10;13.03;;;8.90;;
12135;SDS011;6131;56.420;15.548;2024-03-25T07:53:36;11.80;;;8.87;;
12135;SDS011;6131;56.420;15.548;2024-03-25T07:56:02;13.03;;;8.70;;
12135;SDS011;6131;56.420;15.548;2024-03-25T07:58:29;14.07;;;9.03;;
12135;SDS011;6131;56.420;15.548;2024-03-25T08:00:55;11.37;;;8.40;;
12135;SDS011;6131;56.420;15.548;2024-03-25T08:03:21;12.27;;;7.40;;
12135;SDS011;6131;56.420;15.548;2024-03-25T08:05:50;11.70;;;8.03;;
12135;SDS011;6131;56.420;15.548;2024-03-25T08:08:16;10.93;;;8.27;;
12135;SDS011;6131;56.420;15.548;2024-03-25T08:10:42;9.70;;;6.90;;
12135;SDS011;6131;56.420;15.548;2024-03-25T08:13:08;13.73;;;8.80;;
12135;SDS011;6131;56.420;15.548;2024-03-25T08:15:34;11.70;;;8.10;;
12135;SDS011;6131;56.420;15.548;2024-03-25T08:17:59;12.13;;;8.33;;
12135;SDS011;6131;56.420;15.548;2024-03-25T08:20:26;10.97;;;7.77;;
12135;SDS011;6131;56.420;15.548;2024-03-25T08:22:52;12.00;;;8.33;;
12135;SDS011;6131;56.420;15.548;2024-03-25T08:25:18;10.93;;;7.40;;
12135;SDS011;6131;56.420;15.548;2024-03-25T08:27:44;12.20;;;7.90;;
12135;SDS011;6131;56.420;15.548;2024-03-25T08:30:10;11.80;;;8.20;;
12135;SDS011;6131;56.420;15.548;2024-03-25T08:32:36;11.03;;;8.10;;
12135;SDS011;6131;56.420;15.548;2024-03-25T08:35:02;10.83;;;8.03;;
12135;SDS011;6131;56.420;15.548;2024-03-25T08:37:28;9.90;;;7.30;;
12135;SDS011;6131;56.420;15.548;2024-03-25T08:39:54;13.27;;;8.00;;
12135;SDS011;6131;56.420;15.548;2024-03-25T08:42:20;10.20;;;7.27;;
12135;SDS011;6131;56.420;15.548;2024-03-25T08:44:46;10.77;;;7.63;;
12135;SDS011;6131;56.420;15.548;2024-03-25T08:47:12;10.83;;;7.73;;
12135;SDS011;6131;56.420;15.548;2024-03-25T08:49:38;11.57;;;7.90;;
12135;SDS011;6131;56.420;15.548;2024-03-25T08:52:04;11.30;;;7.40;;
12135;SDS011;6131;56.420;15.548;2024-03-25T08:54:30;10.00;;;7.37;;
12135;SDS011;6131;56.420;15.548;2024-03-25T08:56:56;11.50;;;7.87;;
12135;SDS011;6131;56.420;15.548;2024-03-25T08:59:22;9.97;;;7.17;;
12135;SDS011;6131;56.420;15.548;2024-03-25T09:01:48;10.20;;;7.60;;
12135;SDS011;6131;56.420;15.548;2024-03-25T09:04:14;10.83;;;6.77;;
12135;SDS011;6131;56.420;15.548;2024-03-25T09:06:40;9.27;;;6.27;;
12135;SDS011;6131;56.420;15.548;2024-03-25T09:09:06;10.13;;;6.33;;
12135;SDS011;6131;56.420;15.548;2024-03-25T09:11:51;10.27;;;6.53;;
12135;SDS011;6131;56.420;15.548;2024-03-25T09:14:17;10.27;;;6.10;;
12135;SDS011;6131;56.420;15.548;2024-03-25T09:16:43;7.80;;;5.27;;
12135;SDS011;6131;56.420;15.548;2024-03-25T09:19:09;7.33;;;5.60;;
12135;SDS011;6131;56.420;15.548;2024-03-25T09:21:35;6.87;;;5.50;;
12135;SDS011;6131;56.420;15.548;2024-03-25T09:24:01;6.73;;;5.07;;
12135;SDS011;6131;56.420;15.548;2024-03-25T09:26:27;7.57;;;5.27;;
12135;SDS011;6131;56.420;15.548;2024-03-25T09:28:53;5.23;;;4.50;;
12135;SDS011;6131;56.420;15.548;2024-03-25T09:31:19;6.63;;;4.60;;
12135;SDS011;6131;56.420;15.548;2024-03-25T09:33:46;6.53;;;5.20;;
12135;SDS011;6131;56.420;15.548;2024-03-25T09:36:12;5.87;;;5.10;;
12135;SDS011;6131;56.420;15.548;2024-03-25T09:38:38;5.93;;;4.73;;
12135;SDS011;6131;56.420;15.548;2024-03-25T09:41:04;7.87;;;5.43;;
12135;SDS011;6131;56.420;15.548;2024-03-25T09:43:43;6.77;;;5.10;;
12135;SDS011;6131;56.420;15.548;2024-03-25T09:46:10;7.63;;;5.03;;
12135;SDS011;6131;56.420;15.548;2024-03-25T09:48:37;6.50;;;5.23;;
12135;SDS011;6131;56.420;15.548;2024-03-25T09:51:04;7.03;;;5.30;;
12135;SDS011;6131;56.420;15.548;2024-03-25T09:53:30;6.63;;;5.70;;
12135;SDS011;6131;56.420;15.548;2024-03-25T09:55:56;7.40;;;5.27;;
12135;SDS011;6131;56.420;15.548;2024-03-25T09:58:23;7.03;;;4.90;;
12135;SDS011;6131;56.420;15.548;2024-03-25T10:00:50;8.33;;;4.83;;
12135;SDS011;6131;56.420;15.548;2024-03-25T10:03:16;7.80;;;5.00;;
12135;SDS011;6131;56.420;15.548;2024-03-25T10:05:42;6.93;;;4.70;;
12135;SDS011;6131;56.420;15.548;2024-03-25T10:08:08;6.97;;;5.13;;
12135;SDS011;6131;56.420;15.548;2024-03-25T10:10:34;5.60;;;4.33;;
12135;SDS011;6131;56.420;15.548;2024-03-25T10:13:02;6.53;;;4.43;;
12135;SDS011;6131;56.420;15.548;2024-03-25T10:15:28;4.93;;;4.13;;
12135;SDS011;6131;56.420;15.548;2024-03-25T10:17:54;5.50;;;3.57;;
12135;SDS011;6131;56.420;15.548;2024-03-25T10:20:20;4.23;;;2.83;;
12135;SDS011;6131;56.420;15.548;2024-03-25T10:22:47;3.00;;;2.63;;
12135;SDS011;6131;56.420;15.548;2024-03-25T10:25:30;2.87;;;2.30;;
12135;SDS011;6131;56.420;15.548;2024-03-25T10:27:59;2.87;;;2.30;;
12135;SDS011;6131;56.420;15.548;2024-03-25T10:30:26;2.17;;;1.73;;
12135;SDS011;6131;56.420;15.548;2024-03-25T10:33:01;1.97;;;1.77;;
12135;SDS011;6131;56.420;15.548;2024-03-25T10:35:28;3.33;;;2.40;;
12135;SDS011;6131;56.420;15.548;2024-03-25T10:37:56;3.97;;;2.27;;
12135;SDS011;6131;56.420;15.548;2024-03-25T10:40:24;2.83;;;1.90;;
12135;SDS011;6131;56.420;15.548;2024-03-25T10:42:53;2.20;;;1.80;;
12135;SDS011;6131;56.420;15.548;2024-03-25T10:45:21;2.27;;;1.60;;
12135;SDS011;6131;56.420;15.548;2024-03-25T10:47:47;2.33;;;1.73;;
12135;SDS011;6131;56.420;15.548;2024-03-25T10:50:13;1.87;;;1.60;;
12135;SDS011;6131;56.420;15.548;2024-03-25T10:52:41;1.23;;;1.03;;
12135;SDS011;6131;56.420;15.548;2024-03-25T10:55:07;1.60;;;1.50;;
12135;SDS011;6131;56.420;15.548;2024-03-25T10:57:34;1.30;;;1.20;;
12135;SDS011;6131;56.420;15.548;2024-03-25T11:00:01;2.17;;;1.40;;
12135;SDS011;6131;56.420;15.548;2024-03-25T11:02:28;1.53;;;1.43;;
12135;SDS011;6131;56.420;15.548;2024-03-25T11:04:54;1.40;;;1.20;;
12135;SDS011;6131;56.420;15.548;2024-03-25T11:07:30;1.20;;;1.10;;
12135;SDS011;6131;56.420;15.548;2024-03-25T11:10:04;1.40;;;1.17;;
12135;SDS011;6131;56.420;15.548;2024-03-25T11:12:34;1.50;;;1.20;;
12135;SDS011;6131;56.420;15.548;2024-03-25T11:15:01;4.00;;;1.80;;
12135;SDS011;6131;56.420;15.548;2024-03-25T11:17:28;1.60;;;1.40;;
12135;SDS011;6131;56.420;15.548;2024-03-25T11:19:54;1.67;;;1.37;;
12135;SDS011;6131;56.420;15.548;2024-03-25T11:22:24;2.00;;;1.30;;
12135;SDS011;6131;56.420;15.548;2024-03-25T11:24:50;3.73;;;1.43;;
12135;SDS011;6131;56.420;15.548;2024-03-25T11:27:26;1.93;;;1.20;;
12135;SDS011;6131;56.420;15.548;2024-03-25T11:29:52;1.70;;;1.40;;
12135;SDS011;6131;56.420;15.548;2024-03-25T11:32:18;1.80;;;1.33;;
12135;SDS011;6131;56.420;15.548;2024-03-25T11:34:50;2.30;;;1.23;;
12135;SDS011;6131;56.420;15.548;2024-03-25T11:37:16;1.10;;;1.00;;
12135;SDS011;6131;56.420;15.548;2024-03-25T11:39:43;2.20;;;1.20;;
12135;SDS011;6131;56.420;15.548;2024-03-25T11:42:09;1.63;;;1.17;;
12135;SDS011;6131;56.420;15.548;2024-03-25T11:44:36;1.10;;;1.00;;
12135;SDS011;6131;56.420;15.548;2024-03-25T11:47:02;2.63;;;1.20;;
12135;SDS011;6131;56.420;15.548;2024-03-25T11:49:30;2.10;;;1.30;;
12135;SDS011;6131;56.420;15.548;2024-03-25T11:51:58;3.13;;;1.23;;
12135;SDS011;6131;56.420;15.548;2024-03-25T11:54:26;1.00;;;0.90;;
12135;SDS011;6131;56.420;15.548;2024-03-25T11:56:53;1.70;;;1.00;;
12135;SDS011;6131;56.420;15.548;2024-03-25T11:59:19;1.70;;;1.00;;
12135;SDS011;6131;56.420;15.548;2024-03-25T12:01:45;1.27;;;0.80;;
12135;SDS011;6131;56.420;15.548;2024-03-25T12:04:15;0.87;;;0.70;;
12135;SDS011;6131;56.420;15.548;2024-03-25T12:06:42;1.13;;;0.83;;
12135;SDS011;6131;56.420;15.548;2024-03-25T12:09:08;1.20;;;1.00;;
12135;SDS011;6131;56.420;15.548;2024-03-25T12:11:54;0.97;;;0.87;;
12135;SDS011;6131;56.420;15.548;2024-03-25T12:14:21;1.03;;;0.80;;
12135;SDS011;6131;56.420;15.548;2024-03-25T12:16:48;2.17;;;1.10;;
12135;SDS011;6131;56.420;15.548;2024-03-25T12:19:15;1.00;;;0.90;;
12135;SDS011;6131;56.420;15.548;2024-03-25T12:21:43;1.80;;;0.90;;
12135;SDS011;6131;56.420;15.548;2024-03-25T12:24:09;1.00;;;0.90;;
12135;SDS011;6131;56.420;15.548;2024-03-25T12:26:36;1.80;;;1.10;;
12135;SDS011;6131;56.420;15.548;2024-03-25T12:29:02;1.07;;;0.90;;
12135;SDS011;6131;56.420;15.548;2024-03-25T12:31:29;1.37;;;1.00;;
12135;SDS011;6131;56.420;15.548;2024-03-25T12:33:55;1.00;;;0.90;;
12135;SDS011;6131;56.420;15.548;2024-03-25T12:36:21;1.13;;;0.80;;
12135;SDS011;6131;56.420;15.548;2024-03-25T12:38:54;2.53;;;0.80;;
12135;SDS011;6131;56.420;15.548;2024-03-25T12:41:22;1.03;;;0.90;;
12135;SDS011;6131;56.420;15.548;2024-03-25T12:43:49;1.00;;;0.90;;
12135;SDS011;6131;56.420;15.548;2024-03-25T12:46:15;0.90;;;0.70;;
12135;SDS011;6131;56.420;15.548;2024-03-25T12:48:41;1.43;;;1.07;;
12135;SDS011;6131;56.420;15.548;2024-03-25T12:51:17;1.37;;;1.00;;
12135;SDS011;6131;56.420;15.548;2024-03-25T12:53:43;1.00;;;0.80;;
12135;SDS011;6131;56.420;15.548;2024-03-25T12:56:08;2.03;;;1.10;;
12135;SDS011;6131;56.420;15.548;2024-03-25T12:58:34;1.83;;;0.80;;
12135;SDS011;6131;56.420;15.548;2024-03-25T13:01:00;1.73;;;0.83;;
12135;SDS011;6131;56.420;15.548;2024-03-25T13:03:27;2.27;;;1.40;;
12135;SDS011;6131;56.420;15.548;2024-03-25T13:05:53;0.60;;;0.60;;
12135;SDS011;6131;56.420;15.548;2024-03-25T13:08:23;1.33;;;0.83;;
12135;SDS011;6131;56.420;15.548;2024-03-25T13:10:49;1.20;;;0.70;;
12135;SDS011;6131;56.420;15.548;2024-03-25T13:13:15;0.77;;;0.70;;
12135;SDS011;6131;56.420;15.548;2024-03-25T13:15:41;1.73;;;0.97;;
12135;SDS011;6131;56.420;15.548;2024-03-25T13:18:08;0.90;;;0.70;;
12135;SDS011;6131;56.420;15.548;2024-03-25T13:20:34;0.70;;;0.60;;
12135;SDS011;6131;56.420;15.548;2024-03-25T13:23:00;0.80;;;0.80;;
12135;SDS011;6131;56.420;15.548;2024-03-25T13:25:26;0.77;;;0.70;;
12135;SDS011;6131;56.420;15.548;2024-03-25T13:27:52;1.00;;;0.87;;
12135;SDS011;6131;56.420;15.548;2024-03-25T13:30:18;1.93;;;0.80;;
12135;SDS011;6131;56.420;15.548;2024-03-25T13:32:44;0.77;;;0.70;;
12135;SDS011;6131;56.420;15.548;2024-03-25T13:35:10;0.80;;;0.67;;
12135;SDS011;6131;56.420;15.548;2024-03-25T13:37:36;0.80;;;0.70;;
12135;SDS011;6131;56.420;15.548;2024-03-25T13:40:02;1.43;;;1.00;;
12135;SDS011;6131;56.420;15.548;2024-03-25T13:42:30;2.00;;;0.77;;
12135;SDS011;6131;56.420;15.548;2024-03-25T13:44:56;1.37;;;0.70;;
12135;SDS011;6131;56.420;15.548;2024-03-25T13:47:23;1.27;;;1.07;;
12135;SDS011;6131;56.420;15.548;2024-03-25T13:49:49;0.87;;;0.87;;
12135;SDS011;6131;56.420;15.548;2024-03-25T13:52:15;0.90;;;0.90;;
12135;SDS011;6131;56.420;15.548;2024-03-25T13:54:41;1.00;;;0.83;;
12135;SDS011;6131;56.420;15.548;2024-03-25T13:57:07;1.43;;;1.10;;
12135;SDS011;6131;56.420;15.548;2024-03-25T13:59:33;1.47;;;0.93;;
12135;SDS011;6131;56.420;15.548;2024-03-25T14:01:59;1.10;;;0.83;;
12135;SDS011;6131;56.420;15.548;2024-03-25T14:04:25;2.70;;;1.20;;
12135;SDS011;6131;56.420;15.548;2024-03-25T14:06:52;1.73;;;1.30;;
12135;SDS011;6131;56.420;15.548;2024-03-25T14:09:24;1.47;;;1.20;;
12135;SDS011;6131;56.420;15.548;2024-03-25T14:11:50;3.70;;;1.80;;
12135;SDS011;6131;56.420;15.548;2024-03-25T14:14:16;2.67;;;1.60;;
12135;SDS011;6131;56.420;15.548;2024-03-25T14:16:42;2.43;;;1.80;;
12135;SDS011;6131;56.420;15.548;2024-03-25T14:19:08;2.43;;;1.40;;
12135;SDS011;6131;56.420;15.548;2024-03-25T14:21:34;3.47;;;1.47;;
12135;SDS011;6131;56.420;15.548;2024-03-25T14:24:00;2.70;;;1.60;;
12135;SDS011;6131;56.420;15.548;2024-03-25T14:26:27;6.73;;;3.03;;
12135;SDS011;6131;56.420;15.548;2024-03-25T14:28:53;4.33;;;2.77;;
12135;SDS011;6131;56.420;15.548;2024-03-25T14:31:19;4.40;;;2.83;;